Terminal Aerodrome Forecast
Issued by NWS Melbourne, FL

Home | Current Version | Previous Version | Text Only | Print | Product List | Glossary On
Versions: 1 2 3 4 5 6 7 8 9 10 11 12 13
000
FTUS42 KMLB 291700
TAFVRB
TAF
KVRB 291739Z 2918/3018 26010KT P6SM VCSH SCT035 BKN250
      TEMPO 2918/2919 TSRA BKN025CB OVC080
     FM292100 27010KT P6SM SCT035 BKN120 BKN250
     FM300200 24007KT P6SM FEW040 SCT250
     FM301400 28006KT P6SM SCT025=

USA.gov is the U.S. government's official web portal to all federal, state and local government web resources and services.